Time;durP1;ratioP1;P1;durP2;ratioP2;P2;SDS_P1;SDS_P2;PMS_P1;PMS_P2;Temp;Humidity;BMP_temperature;BMP_pressure;BME280_temperature;BME280_humidity;BME280_pressure;Samples;Min_cycle;Max_cycle;Signal;HPM_P1;HPM_P2
2022/05/21 00:00:39;;;;;;;4.57;2.50;;;16.70;99.90;;;-141.84;85.06;17148.31;5074265;28;20301;-60
2022/05/21 00:03:09;;;;;;;4.65;2.70;;;16.70;99.90;;;-141.84;85.42;17136.13;5074364;28;20281;-60
2022/05/21 00:05:38;;;;;;;2.72;2.45;;;16.60;99.90;;;-141.84;86.18;17121.91;5073692;28;20201;-60
2022/05/21 00:08:09;;;;;;;2.70;2.50;;;16.50;99.90;;;-141.84;86.07;17095.50;5074249;28;20219;-61
2022/05/21 00:10:39;;;;;;;3.45;2.40;;;16.50;99.90;;;-141.84;84.69;17156.41;5073894;28;20720;-61
2022/05/21 00:13:09;;;;;;;2.85;2.55;;;16.60;99.90;;;-141.84;84.81;17205.16;5074057;28;20304;-60
2022/05/21 00:15:37;;;;;;;6.57;2.67;;;16.60;99.90;;;-141.84;86.33;17121.91;5073795;28;20687;-62
2022/05/21 00:18:07;;;;;;;3.05;2.75;;;16.60;99.90;;;-141.84;84.28;17197.03;5074000;28;20258;-60
2022/05/21 00:20:50;;;;;;;2.80;2.60;;;16.60;99.90;;;-141.84;82.94;17298.59;5073716;28;20239;-61
2022/05/21 00:23:24;;;;;;;3.85;2.85;;;16.70;99.90;;;-141.84;80.86;17450.94;5073702;28;20238;-61
2022/05/21 00:25:57;;;;;;;2.58;2.38;;;16.80;99.90;;;-141.84;79.53;17515.91;5073598;28;20273;-61
2022/05/21 00:28:28;;;;;;;3.38;2.03;;;16.90;99.90;;;-141.84;81.66;17363.59;5073450;28;20185;-59
2022/05/21 00:30:57;;;;;;;3.05;2.40;;;16.80;99.90;;;-141.84;81.62;17420.47;5073752;28;20177;-60
2022/05/21 00:33:27;;;;;;;2.33;2.10;;;16.80;99.90;;;-141.84;82.76;17322.97;5073454;28;20219;-61
2022/05/21 00:35:55;;;;;;;4.25;2.00;;;16.80;99.90;;;-141.84;81.39;17408.28;5073403;28;20637;-61
2022/05/21 00:38:26;;;;;;;3.47;1.77;;;16.80;99.90;;;-141.84;79.52;17487.47;5073315;28;20203;-60
2022/05/21 00:40:56;;;;;;;3.55;1.80;;;16.80;99.90;;;-141.84;80.28;17485.44;5073502;28;20620;-60
2022/05/21 00:43:43;;;;;;;2.17;1.98;;;16.80;99.90;;;-141.84;81.32;17396.09;5073365;28;20219;-60
2022/05/21 00:46:16;;;;;;;1.80;1.60;;;16.80;99.90;;;-141.84;78.90;17542.31;5073229;28;20635;-60
2022/05/21 00:48:46;;;;;;;1.80;1.67;;;16.80;99.90;;;-141.84;80.30;17526.06;5072167;28;20203;-61
2022/05/21 00:51:21;;;;;;;2.00;1.55;;;16.70;99.90;;;-141.84;80.38;17515.91;5073066;28;20207;-60
2022/05/21 00:53:55;;;;;;;2.42;1.75;;;16.70;99.90;;;-141.84;80.42;17459.06;5073372;28;20228;-60
2022/05/21 00:56:25;;;;;;;2.33;1.50;;;16.70;99.90;;;-141.84;80.06;17489.50;5073354;28;20279;-62
2022/05/21 01:01:49;;;;;;;3.15;1.48;;;16.50;99.90;;;-141.84;79.00;17517.94;5073060;28;20219;-61
2022/05/21 01:04:17;;;;;;;2.50;1.60;;;16.50;99.90;;;-141.84;79.66;17538.25;5073129;28;20664;-60
2022/05/21 01:06:45;;;;;;;1.50;1.40;;;16.50;99.90;;;-141.84;79.70;17505.75;5072678;28;20308;-62
2022/05/21 01:09:13;;;;;;;1.55;1.20;;;16.40;99.90;;;-141.84;78.21;17619.50;5072791;28;20196;-62
2022/05/21 01:11:41;;;;;;;1.45;1.27;;;16.40;99.90;;;-141.84;78.15;17554.50;5072630;28;20197;-61
2022/05/21 01:14:12;;;;;;;1.20;1.10;;;16.40;99.90;;;-141.84;76.54;17639.81;5072567;28;20256;-63
2022/05/21 01:16:41;;;;;;;1.05;0.93;;;16.30;99.90;;;-141.84;77.02;17658.09;5072872;28;20185;-60
2022/05/21 01:19:11;;;;;;;2.05;1.25;;;16.30;99.90;;;-141.84;75.38;17739.34;5072666;28;20227;-61
2022/05/21 01:21:39;;;;;;;1.58;1.38;;;16.30;99.90;;;-141.84;75.43;17700.75;5072561;28;20204;-61
2022/05/21 01:24:11;;;;;;;1.98;1.25;;;16.30;99.90;;;-141.84;74.75;17788.09;5072695;28;20291;-60
2022/05/21 01:26:41;;;;;;;1.45;1.35;;;16.20;99.90;;;-141.84;75.19;17755.59;5072793;28;20189;-60
2022/05/21 01:29:20;;;;;;;3.30;1.65;;;16.20;99.90;;;-141.84;76.81;17698.72;5072746;28;20734;-59
2022/05/21 01:31:51;;;;;;;1.65;1.55;;;16.00;99.90;;;-141.84;78.66;17587.00;5072769;28;20187;-60
2022/05/21 01:34:21;;;;;;;2.65;1.80;;;15.90;99.90;;;-141.84;78.13;17617.47;5072225;28;20243;-60
2022/05/21 01:36:49;;;;;;;2.15;1.65;;;15.70;99.90;;;-141.84;79.77;17552.47;5072322;28;20660;-60
2022/05/21 01:39:19;;;;;;;4.07;2.00;;;15.70;99.90;;;-141.84;79.86;17489.50;5072301;28;20292;-60
2022/05/21 01:41:48;;;;;;;2.00;1.80;;;15.50;99.90;;;-141.84;81.09;17422.50;5072392;28;20615;-61
2022/05/21 01:47:03;;;;;;;2.65;2.17;;;15.40;99.90;;;-141.84;80.83;17442.81;5072456;28;20224;-62
2022/05/21 01:49:30;;;;;;;2.63;2.35;;;15.30;99.90;;;-141.84;81.14;17448.91;5072096;28;20300;-60
2022/05/21 01:51:58;;;;;;;4.35;2.60;;;15.30;99.90;;;-141.84;79.68;17450.94;5072500;28;20200;-61
2022/05/21 01:54:28;;;;;;;3.20;2.40;;;15.20;99.90;;;-141.84;80.79;17428.59;5072183;28;20213;-61
2022/05/21 01:56:56;;;;;;;2.55;2.35;;;15.20;99.90;;;-141.84;80.37;17457.03;5072181;28;20603;-61
2022/05/21 01:59:25;;;;;;;4.45;2.90;;;15.20;99.90;;;-141.84;79.34;17467.16;5071890;28;20236;-61
2022/05/21 02:01:53;;;;;;;3.40;3.03;;;15.20;99.90;;;-141.84;79.28;17469.19;5072344;28;20203;-61
2022/05/21 02:04:22;;;;;;;3.28;2.97;;;15.20;99.90;;;-141.84;80.66;17465.13;5072123;28;20668;-61
2022/05/21 02:06:50;;;;;;;3.43;3.13;;;15.20;99.90;;;-141.84;80.51;17450.94;5071700;28;20760;-61
2022/05/21 02:09:18;;;;;;;7.07;3.57;;;15.10;99.90;;;-141.84;80.28;17440.78;5071843;28;20209;-60
2022/05/21 02:11:48;;;;;;;3.50;3.20;;;15.00;99.90;;;-141.84;80.39;17452.97;5072043;28;20201;-61
2022/05/21 02:14:17;;;;;;;4.60;3.30;;;15.00;99.90;;;-141.84;79.93;17448.91;5071775;28;20227;-60
2022/05/21 02:16:45;;;;;;;3.60;3.30;;;15.00;99.90;;;-141.84;80.52;17461.09;5072307;28;20196;-60
2022/05/21 02:19:13;;;;;;;3.90;3.60;;;14.90;99.90;;;-141.84;79.05;17513.88;5071929;28;20200;-60
2022/05/21 02:21:42;;;;;;;5.40;3.90;;;15.00;99.90;;;-141.84;79.86;17483.41;5072078;28;20205;-60
2022/05/21 02:24:10;;;;;;;4.83;3.93;;;15.00;99.90;;;-141.84;79.30;17481.38;5071777;28;20199;-61
2022/05/21 02:26:40;;;;;;;5.17;3.80;;;15.00;99.90;;;-141.84;78.25;17542.31;5071971;28;20959;-59
2022/05/21 02:29:09;;;;;;;4.57;4.13;;;15.00;99.90;;;-141.84;77.90;17566.69;5072317;28;20193;-61
2022/05/21 02:31:37;;;;;;;5.70;3.97;;;15.00;99.90;;;-141.84;78.50;17513.88;5071992;28;20225;-60
2022/05/21 02:34:05;;;;;;;6.73;3.97;;;15.10;99.90;;;-141.84;77.30;17621.53;5072362;28;20207;-60
2022/05/21 02:39:28;;;;;;;4.07;3.50;;;15.10;99.90;;;-141.84;77.37;17623.56;5071805;28;20185;-60
2022/05/21 02:41:59;;;;;;;4.10;3.50;;;15.10;99.90;;;-141.84;76.38;17684.50;5072075;28;20185;-59
2022/05/21 02:44:30;;;;;;;4.60;3.80;;;15.10;99.90;;;-141.84;76.12;17639.81;5072027;28;20561;-60
2022/05/21 02:46:58;;;;;;;4.33;3.60;;;15.10;99.90;;;-141.84;74.84;17676.38;5071973;28;20181;-61
2022/05/21 02:49:26;;;;;;;4.20;3.80;;;15.10;99.90;;;-141.84;73.46;17755.59;5071964;28;20201;-60
2022/05/21 02:51:54;;;;;;;4.30;3.90;;;15.20;99.90;;;-141.84;72.99;17790.13;5071768;28;20209;-60
2022/05/21 02:54:22;;;;;;;4.67;3.63;;;15.20;99.90;;;-141.84;73.89;17784.03;5071691;28;20251;-59
2022/05/21 02:56:51;;;;;;;4.40;4.00;;;15.10;99.90;;;-141.84;73.11;17757.63;5071452;28;20205;-59
2022/05/21 02:59:19;;;;;;;4.65;4.22;;;15.10;99.90;;;-141.84;71.94;17812.47;5071498;28;20211;-59
2022/05/21 03:01:49;;;;;;;5.50;4.10;;;15.00;99.90;;;-141.84;72.18;17832.78;5071797;28;20232;-60
2022/05/21 03:04:17;;;;;;;6.70;4.30;;;15.00;99.90;;;-141.84;72.25;17792.16;5071633;28;20201;-60
2022/05/21 03:06:45;;;;;;;3.50;3.30;;;14.90;99.90;;;-141.84;72.78;17812.47;5071126;28;20649;-61
2022/05/21 03:11:58;;;;;;;4.53;3.75;;;14.90;99.90;;;-141.84;73.57;17788.09;5072433;28;20266;-59
2022/05/21 03:14:26;;;;;;;4.30;3.90;;;14.90;99.90;;;-141.84;74.07;17771.84;5074952;28;20562;-61
2022/05/21 03:16:59;;;;;;;4.10;3.70;;;14.90;99.90;;;-141.84;73.99;17751.53;5074873;28;20209;-61
2022/05/21 03:19:28;;;;;;;4.57;3.97;;;14.80;99.90;;;-141.84;73.13;17790.13;5074995;28;20181;-60
2022/05/21 03:21:56;;;;;;;4.80;4.30;;;14.90;99.90;;;-141.84;72.79;17808.41;5074883;28;20200;-61
2022/05/21 03:24:24;;;;;;;5.70;4.43;;;14.90;99.90;;;-141.84;71.98;17818.56;5074727;28;20201;-60
2022/05/21 03:26:52;;;;;;;6.00;4.00;;;14.90;99.90;;;-141.84;73.07;17800.28;5074892;28;20200;-61
2022/05/21 03:29:20;;;;;;;4.33;3.93;;;14.80;99.90;;;-141.84;71.80;17818.56;5074580;28;20735;-59
2022/05/21 03:31:48;;;;;;;4.27;3.77;;;14.90;99.90;;;-141.84;71.97;17863.25;5074689;28;20207;-60
2022/05/21 03:34:19;;;;;;;10.40;4.13;;;14.90;99.90;;;-141.84;71.34;17859.19;5074746;28;20203;-62
2022/05/21 03:36:47;;;;;;;5.67;3.47;;;14.90;99.90;;;-141.84;72.22;17840.91;5074656;28;20192;-61
2022/05/21 03:39:15;;;;;;;4.10;3.13;;;14.80;99.90;;;-141.84;72.34;17832.78;5074317;28;20206;-61
2022/05/21 03:41:42;;;;;;;5.05;3.28;;;14.80;99.90;;;-141.84;71.05;17861.22;5074376;28;20284;-62
2022/05/21 03:44:10;;;;;;;3.40;2.90;;;14.90;99.90;;;-141.84;70.36;17897.78;5074615;28;20532;-60
2022/05/21 03:46:39;;;;;;;4.10;3.37;;;14.90;99.90;;;-141.84;70.63;17869.34;5074536;28;20194;-60
2022/05/21 03:49:07;;;;;;;4.57;2.60;;;14.80;99.90;;;-141.84;70.99;17851.06;5074493;28;20201;-60
2022/05/21 03:51:37;;;;;;;2.43;2.20;;;14.80;99.90;;;-141.84;70.55;17914.03;5074492;28;20204;-61
2022/05/21 03:54:05;;;;;;;4.10;2.30;;;14.70;99.90;;;-141.84;69.98;17897.78;5074255;28;20212;-60
2022/05/21 03:56:33;;;;;;;1.83;1.73;;;14.70;99.90;;;-141.84;69.57;17903.88;5074732;28;20216;-59
2022/05/21 03:59:01;;;;;;;1.97;1.83;;;14.70;99.90;;;-141.84;71.67;17865.28;5074425;28;20200;-60
2022/05/21 04:01:29;;;;;;;3.90;2.13;;;14.70;99.90;;;-141.84;69.93;17899.81;5074430;28;20213;-60
2022/05/21 04:03:57;;;;;;;3.37;2.10;;;14.70;99.90;;;-141.84;70.55;17875.44;5074732;28;20282;-61
2022/05/21 04:06:25;;;;;;;2.20;2.00;;;14.70;99.90;;;-141.84;70.25;17907.94;5074114;28;20550;-61
2022/05/21 04:08:54;;;;;;;1.93;1.70;;;14.60;99.90;;;-141.84;69.81;17905.91;5074210;28;20224;-61
2022/05/21 04:11:22;;;;;;;3.93;2.00;;;14.70;99.90;;;-141.84;69.99;17897.78;5074234;28;20300;-62
2022/05/21 04:13:50;;;;;;;2.60;2.30;;;14.70;99.90;;;-141.84;69.51;17901.84;5073822;28;20577;-60
2022/05/21 04:16:18;;;;;;;2.80;2.00;;;14.70;99.90;;;-141.84;70.24;17912.00;5073886;28;20221;-60
2022/05/21 04:18:46;;;;;;;2.03;1.70;;;14.60;99.90;;;-141.84;70.99;17905.91;5073744;28;20204;-62
2022/05/21 04:21:14;;;;;;;2.80;1.93;;;14.70;99.90;;;-141.84;71.53;17883.56;5073354;28;20293;-61
2022/05/21 04:23:42;;;;;;;2.33;1.83;;;14.60;99.90;;;-141.84;70.61;17905.91;5073406;28;20201;-61
2022/05/21 04:26:12;;;;;;;1.83;1.63;;;14.70;99.90;;;-141.84;71.50;17907.94;5073402;28;20288;-61
2022/05/21 04:28:40;;;;;;;2.63;1.87;;;14.70;99.90;;;-141.84;69.25;17928.28;5073315;28;20291;-60
2022/05/21 04:31:07;;;;;;;5.17;1.83;;;14.70;99.90;;;-141.84;70.90;17875.44;5073655;28;20200;-60
2022/05/21 04:33:35;;;;;;;4.40;2.10;;;14.70;99.90;;;-141.84;69.96;17916.06;5073543;28;20204;-60
2022/05/21 04:36:19;;;;;;;2.93;2.10;;;14.80;99.90;;;-141.84;70.48;17897.78;5073200;28;20246;-60
2022/05/21 04:38:47;;;;;;;2.60;2.08;;;14.70;99.90;;;-141.84;70.04;17907.94;5073128;28;20184;-60
2022/05/21 04:41:17;;;;;;;3.70;2.20;;;14.70;99.90;;;-141.84;70.73;17905.91;5073021;28;20208;-61
2022/05/21 04:43:46;;;;;;;2.50;2.17;;;14.70;99.90;;;-141.84;70.63;17895.75;5073426;28;20387;-61
2022/05/21 04:46:15;;;;;;;1.90;1.80;;;14.60;99.90;;;-141.84;71.23;17871.38;5073166;28;20204;-61
2022/05/21 04:48:44;;;;;;;2.67;2.00;;;14.60;99.90;;;-141.84;70.51;17909.97;5072880;28;20734;-62
2022/05/21 04:51:32;;;;;;;2.17;1.95;;;14.60;99.90;;;-141.84;71.44;17899.81;5073058;28;20208;-60
2022/05/21 04:54:00;;;;;;;2.10;1.90;;;14.70;99.90;;;-141.84;70.22;17916.06;5073065;28;20293;-60
2022/05/21 04:56:31;;;;;;;2.20;2.00;;;14.80;99.90;;;-141.84;70.43;17916.06;5073107;28;20243;-62
2022/05/21 04:59:06;;;;;;;2.70;2.25;;;14.80;99.90;;;-141.84;69.31;17977.03;5073173;28;20196;-60
2022/05/21 05:01:34;;;;;;;3.03;2.08;;;14.80;99.90;;;-141.84;65.34;18068.44;5073239;28;20232;-60
2022/05/21 05:04:02;;;;;;;2.35;1.80;;;15.20;99.90;;;-141.84;64.48;18143.59;5073067;28;20197;-62
2022/05/21 05:06:32;;;;;;;3.08;2.17;;;15.50;99.90;;;-141.84;63.26;18153.75;5072865;28;20288;-61
2022/05/21 05:09:00;;;;;;;2.35;1.90;;;15.70;99.90;;;-141.84;62.73;18163.91;5072445;28;20200;-60
2022/05/21 05:11:30;;;;;;;2.80;2.00;;;15.80;99.90;;;-141.84;60.61;18269.56;5072773;28;20201;-62
2022/05/21 05:13:58;;;;;;;3.20;2.03;;;16.20;99.90;;;-141.84;59.67;18326.44;5072899;28;20255;-61
2022/05/21 05:16:26;;;;;;;2.22;1.58;;;16.50;99.90;;;-141.84;59.83;18322.38;5072862;28;20577;-60
2022/05/21 05:18:54;;;;;;;3.50;1.80;;;16.50;99.90;;;-141.84;58.49;18371.13;5072295;28;20261;-59
2022/05/21 05:21:22;;;;;;;2.13;1.70;;;16.60;99.90;;;-141.84;58.41;18365.03;5072757;28;20204;-62
2022/05/21 05:23:50;;;;;;;2.13;1.30;;;16.80;99.90;;;-141.84;57.31;18446.31;5072511;28;20201;-61
2022/05/21 05:26:19;;;;;;;2.33;1.50;;;17.10;99.90;;;-141.84;55.26;18558.03;5072786;28;20391;-62
2022/05/21 05:28:49;;;;;;;3.38;1.80;;;17.30;99.90;;;-141.84;57.83;18458.50;5072676;28;20232;-62
2022/05/21 05:31:17;;;;;;;3.85;1.80;;;17.30;99.90;;;-141.84;57.02;18440.22;5072856;28;20283;-60
2022/05/21 05:33:46;;;;;;;2.47;1.90;;;17.30;99.90;;;-141.84;58.94;18373.16;5072494;28;20201;-61
2022/05/21 05:36:14;;;;;;;2.35;1.52;;;17.20;99.90;;;-141.84;59.05;18391.44;5072047;28;20224;-62
2022/05/21 05:38:42;;;;;;;1.83;1.60;;;17.10;99.90;;;-141.84;58.81;18389.41;5072559;28;20296;-63
2022/05/21 05:41:10;;;;;;;2.38;1.75;;;17.10;99.90;;;-141.84;58.35;18371.13;5072436;28;20204;-60
2022/05/21 05:43:45;;;;;;;2.55;1.48;;;17.00;99.90;;;-141.84;61.23;18310.19;5072463;28;20188;-60
2022/05/21 05:46:14;;;;;;;3.33;1.40;;;17.00;99.90;;;-141.84;59.03;18411.75;5072458;28;20193;-61
2022/05/21 05:48:42;;;;;;;2.85;1.58;;;17.00;99.90;;;-141.84;58.37;18387.38;5072486;28;20200;-61
2022/05/21 05:51:10;;;;;;;2.58;1.75;;;16.90;99.90;;;-141.84;60.00;18393.47;5072114;28;20295;-60
2022/05/21 05:53:38;;;;;;;3.60;1.83;;;16.70;99.90;;;-141.84;60.03;18344.72;5072418;28;20312;-61
2022/05/21 05:56:09;;;;;;;4.80;1.70;;;16.90;99.90;;;-141.84;59.74;18377.22;5072290;28;20231;-61
2022/05/21 06:01:25;;;;;;;1.50;1.40;;;16.70;99.90;;;-141.84;59.57;18389.41;5072366;28;20185;-61
2022/05/21 06:03:55;;;;;;;1.65;1.40;;;16.70;99.90;;;-141.84;59.83;18352.84;5072387;28;20192;-61
2022/05/21 06:06:23;;;;;;;2.65;1.63;;;16.80;99.90;;;-141.84;59.97;18387.38;5072381;28;20291;-62
2022/05/21 06:08:52;;;;;;;6.40;2.30;;;16.80;99.90;;;-141.84;59.07;18411.75;5072172;28;20295;-60
2022/05/21 06:11:21;;;;;;;4.07;2.45;;;16.70;99.90;;;-141.84;59.84;18344.72;5072147;28;20311;-61
2022/05/21 06:13:49;;;;;;;1.98;1.77;;;16.80;99.90;;;-141.84;59.68;18367.06;5072022;28;20211;-60
2022/05/21 06:16:17;;;;;;;3.75;2.38;;;16.90;99.90;;;-141.84;59.49;18411.75;5072012;28;20307;-60
2022/05/21 06:18:46;;;;;;;2.33;2.00;;;17.10;99.90;;;-141.84;57.83;18395.50;5072216;28;20239;-61
2022/05/21 06:21:14;;;;;;;3.25;2.35;;;17.20;99.90;;;-141.84;56.63;18436.16;5071857;28;20209;-60
2022/05/21 06:23:44;;;;;;;4.05;2.17;;;17.10;99.90;;;-141.84;56.98;18464.59;5072004;28;20587;-61
2022/05/21 06:26:13;;;;;;;2.88;2.33;;;17.10;99.90;;;-141.84;57.06;18446.31;5072276;28;20196;-61
2022/05/21 06:28:42;;;;;;;2.85;2.53;;;17.10;99.90;;;-141.84;57.15;18417.84;5072097;28;20204;-60
2022/05/21 06:31:10;;;;;;;3.28;2.53;;;17.00;99.90;;;-141.84;57.02;18472.72;5071984;28;20291;-60
2022/05/21 06:33:38;;;;;;;2.95;2.67;;;17.00;99.90;;;-141.84;55.76;18454.44;5071977;28;20201;-60
2022/05/21 06:36:11;;;;;;;3.95;2.60;;;17.10;99.90;;;-141.84;57.02;18454.44;5071840;28;20604;-62
2022/05/21 06:38:40;;;;;;;3.70;3.35;;;17.10;99.90;;;-141.84;56.95;18428.03;5077824;28;20276;-54
2022/05/21 06:41:09;;;;;;;3.15;2.83;;;17.10;99.90;;;-141.84;57.52;18442.25;5071184;28;20213;-61
2022/05/21 06:43:38;;;;;;;3.30;2.70;;;17.30;99.90;;;-141.84;57.17;18464.59;5071757;28;20292;-60
2022/05/21 06:46:07;;;;;;;3.47;2.92;;;17.30;99.90;;;-141.84;57.48;18497.09;5073124;28;20300;-62
2022/05/21 06:48:35;;;;;;;3.00;2.70;;;17.30;99.90;;;-141.84;57.60;18476.78;5075640;28;20200;-60
2022/05/21 06:51:05;;;;;;;2.92;2.63;;;17.30;99.90;;;-141.84;56.60;18484.91;5075720;28;20205;-60
2022/05/21 06:53:37;;;;;;;3.35;2.90;;;17.40;99.90;;;-141.84;56.84;18527.56;5075436;28;20692;-60
2022/05/21 06:56:10;;;;;;;3.10;2.75;;;17.50;99.90;;;-141.84;56.43;18523.50;5075602;28;20616;-60
2022/05/21 06:58:39;;;;;;;3.33;2.83;;;17.50;99.90;;;-141.84;56.57;18519.44;5075804;28;20287;-61
2022/05/21 07:01:07;;;;;;;2.95;2.65;;;17.50;99.90;;;-141.84;55.21;18501.16;5075884;28;20203;-60
2022/05/21 07:03:35;;;;;;;2.97;2.67;;;17.40;99.90;;;-141.84;55.96;18505.22;5075743;28;20213;-62
2022/05/21 07:08:52;;;;;;;2.85;2.20;;;17.50;99.90;;;-141.84;55.36;18521.47;5075592;28;20185;-60
2022/05/21 07:11:20;;;;;;;3.10;2.80;;;17.50;99.90;;;-141.84;54.27;18594.63;5075638;28;20211;-61
2022/05/21 07:13:47;;;;;;;4.75;2.90;;;17.50;99.90;;;-141.84;53.94;18570.22;5075994;28;20265;-61
2022/05/21 07:16:15;;;;;;;3.10;2.70;;;17.60;99.90;;;-141.84;55.57;18486.94;5075571;28;20520;-60
2022/05/21 07:18:43;;;;;;;5.20;2.67;;;17.60;99.90;;;-141.84;53.06;18586.50;5075380;28;20220;-61
2022/05/21 07:21:15;;;;;;;4.03;2.20;;;17.60;99.90;;;-141.84;53.70;18596.66;5074962;28;20740;-61
2022/05/21 07:23:44;;;;;;;3.60;2.22;;;17.50;99.90;;;-141.84;54.87;18576.31;5075356;28;20193;-61
2022/05/21 07:26:14;;;;;;;3.03;2.50;;;17.40;99.90;;;-141.84;53.39;18533.66;5074932;28;20201;-60
2022/05/21 07:28:42;;;;;;;3.03;2.13;;;17.40;99.90;;;-141.84;55.75;18545.84;5075060;28;20277;-61
2022/05/21 07:31:11;;;;;;;2.30;2.10;;;17.30;99.90;;;-141.84;55.84;18545.84;5074956;28;20232;-60
2022/05/21 07:33:40;;;;;;;3.22;1.92;;;17.50;99.90;;;-141.84;49.95;18592.59;5073364;28;20299;-62
2022/05/21 07:36:08;;;;;;;2.50;2.30;;;17.60;99.90;;;-141.84;48.27;18606.81;5067320;28;20204;-60
2022/05/21 07:38:37;;;;;;;3.15;2.40;;;17.70;99.90;;;-141.84;48.00;18629.16;5073696;28;20235;-60
2022/05/21 07:41:05;;;;;;;2.53;2.28;;;17.60;99.90;;;-141.84;48.14;18631.19;5073780;28;20213;-63
2022/05/21 07:43:35;;;;;;;4.15;2.20;;;17.70;99.90;;;-141.84;48.03;18635.25;5072305;28;20201;-61
2022/05/21 07:46:06;;;;;;;3.60;2.30;;;17.80;99.90;;;-141.84;48.67;18631.19;5072535;28;20208;-61
2022/05/21 07:48:34;;;;;;;3.22;2.35;;;17.90;99.90;;;-141.84;48.75;18657.59;5073827;28;20189;-62
2022/05/21 07:51:07;;;;;;;3.33;2.70;;;17.70;99.90;;;-141.84;47.96;18619.00;5073006;28;20645;-60
2022/05/21 07:53:41;;;;;;;3.15;2.88;;;17.50;99.90;;;-141.84;48.09;18610.88;5070073;28;20681;-61
2022/05/21 07:56:15;;;;;;;4.43;2.67;;;17.40;99.90;;;-141.84;48.24;18612.91;5070550;28;20652;-60
2022/05/21 07:58:44;;;;;;;4.43;2.78;;;17.30;99.90;;;-141.84;48.06;18612.91;5072587;28;20216;-61
2022/05/21 08:01:13;;;;;;;2.88;2.67;;;17.40;99.90;;;-141.84;47.29;18663.69;5073244;28;20189;-62
2022/05/21 08:03:47;;;;;;;2.88;2.28;;;17.60;99.90;;;-141.84;47.02;18702.28;5071173;28;20203;-61
2022/05/21 08:06:15;;;;;;;2.80;2.60;;;18.00;99.90;;;-141.84;45.03;18832.34;5071126;28;20400;-61
2022/05/21 08:08:43;;;;;;;5.22;3.00;;;18.30;99.90;;;-141.84;44.01;18830.31;5072738;28;20854;-61
2022/05/21 08:11:12;;;;;;;3.00;2.70;;;18.70;99.90;;;-141.84;45.10;18860.78;5072859;28;20736;-62
2022/05/21 08:13:40;;;;;;;4.40;2.70;;;18.80;99.90;;;-141.84;44.76;18913.59;5072993;28;20569;-61
2022/05/21 08:16:10;;;;;;;3.58;3.28;;;19.10;99.90;;;-141.84;44.70;18862.81;5072958;28;20283;-61
2022/05/21 08:18:38;;;;;;;4.43;2.97;;;19.00;99.90;;;-141.84;46.43;18797.78;5072867;28;20225;-61
2022/05/21 08:21:06;;;;;;;4.35;3.00;;;18.80;99.90;;;-141.84;46.68;18773.41;5072816;28;20201;-62
2022/05/21 08:29:06;;;;;;;3.42;2.97;;;18.40;99.90;;;-141.84;46.73;18753.09;5058266;28;20212;-61
2022/05/21 08:31:35;;;;;;;4.47;2.97;;;18.20;99.90;;;-141.84;46.74;18765.28;5070958;28;20197;-60
2022/05/21 08:34:03;;;;;;;3.53;3.22;;;18.20;99.90;;;-141.84;46.46;18795.75;5072326;28;20299;-61
2022/05/21 08:36:32;;;;;;;4.82;3.75;;;18.30;99.90;;;-141.84;47.63;18724.66;5072332;28;20250;-61
2022/05/21 08:38:59;;;;;;;3.10;2.90;;;18.30;99.90;;;-141.84;47.04;18781.53;5072431;28;20223;-62
2022/05/21 08:41:32;;;;;;;3.88;3.53;;;18.40;99.90;;;-141.84;47.38;18773.41;5071632;28;20624;-61
2022/05/21 08:44:05;;;;;;;4.38;3.00;;;18.60;99.90;;;-141.84;47.38;18858.75;5073148;28;20181;-60
2022/05/21 08:46:55;;;;;;;3.13;2.83;;;18.80;99.90;;;-141.84;46.17;18889.22;5072669;28;20184;-61
2022/05/21 08:49:38;;;;;;;5.50;3.50;;;19.00;99.90;;;-141.84;45.52;18850.63;5072364;28;20651;-60
2022/05/21 08:52:19;;;;;;;3.45;3.15;;;18.90;99.90;;;-141.84;46.35;18883.13;5072030;28;20223;-60
2022/05/21 08:54:50;;;;;;;3.78;3.40;;;18.80;99.90;;;-141.84;46.11;18836.41;5072437;28;20283;-61
2022/05/21 08:57:26;;;;;;;3.65;3.30;;;18.80;99.90;;;-141.84;46.57;18858.75;5072330;28;20196;-62
2022/05/21 09:00:05;;;;;;;3.15;2.90;;;18.70;99.90;;;-141.84;47.40;18805.91;5067466;28;20192;-60
2022/05/21 09:02:36;;;;;;;2.67;2.47;;;18.80;99.90;;;-141.84;46.60;18850.63;5066219;28;21018;-59
2022/05/21 09:05:08;;;;;;;2.92;2.65;;;19.00;99.90;;;-141.84;45.76;18895.31;5068270;28;20200;-59
2022/05/21 09:07:52;;;;;;;3.08;2.75;;;19.20;99.90;;;-141.84;43.64;18952.22;5071399;28;20637;-60
2022/05/21 09:10:39;;;;;;;2.92;2.00;;;19.20;99.90;;;-141.84;45.03;18931.91;5070754;28;20217;-59
2022/05/21 09:13:17;;;;;;;2.28;2.10;;;19.40;99.90;;;-141.84;44.95;18895.31;5071877;28;20619;-62
2022/05/21 09:18:35;;;;;;;4.03;2.10;;;19.20;99.90;;;-141.84;44.51;18950.19;5071488;28;20248;-61
2022/05/21 09:21:10;;;;;;;3.75;2.58;;;19.40;99.90;;;-141.84;45.31;18881.09;5067570;28;20196;-61
2022/05/21 09:23:51;;;;;;;3.38;2.28;;;19.10;99.90;;;-141.84;46.21;18838.44;5071342;28;20279;-60
2022/05/21 09:26:22;;;;;;;3.03;2.20;;;18.80;99.90;;;-141.84;46.82;18814.03;5071525;28;20222;-62
2022/05/21 09:28:51;;;;;;;2.60;2.40;;;18.70;99.90;;;-141.84;46.91;18826.25;5071393;28;20207;-61
2022/05/21 09:31:30;;;;;;;2.50;2.30;;;18.50;99.90;;;-141.84;46.93;18814.03;5070008;28;20273;-62
2022/05/21 09:34:16;;;;;;;5.00;2.63;;;18.50;99.90;;;-141.84;47.11;18775.44;5070483;28;20231;-61
2022/05/21 09:36:44;;;;;;;3.58;2.45;;;18.40;99.90;;;-141.84;46.17;18858.75;5061384;28;20625;-61
2022/05/21 09:39:32;;;;;;;4.40;2.72;;;18.70;99.90;;;-141.84;45.59;18891.25;5070983;28;20205;-60
2022/05/21 09:45:21;;;;;;;2.75;2.50;;;18.90;99.90;;;-141.84;45.43;18852.66;5071412;28;20275;-62
2022/05/21 09:45:22;;;;;;;3.13;2.40;;;19.10;99.90;;;-141.84;44.79;18915.63;5071303;28;20196;-59
2022/05/21 09:47:50;;;;;;;4.35;2.50;;;19.30;99.90;;;-141.84;45.63;18895.31;5071010;28;20189;-61
2022/05/21 09:50:25;;;;;;;4.82;2.30;;;19.40;99.90;;;-141.84;45.55;18893.28;5070661;28;20648;-59
2022/05/21 09:52:53;;;;;;;2.92;2.40;;;19.20;99.90;;;-141.84;46.07;18848.59;5071143;28;20196;-60
2022/05/21 09:55:26;;;;;;;3.38;2.50;;;19.20;99.90;;;-141.84;46.66;18838.44;5071256;28;20633;-61
2022/05/21 09:58:10;;;;;;;3.15;2.50;;;18.90;99.90;;;-141.84;47.46;18803.88;5070604;28;20198;-61
2022/05/21 10:00:39;;;;;;;5.95;3.08;;;18.90;99.90;;;-141.84;46.89;18838.44;5070586;28;20193;-59
2022/05/21 10:03:11;;;;;;;4.00;2.63;;;18.90;99.90;;;-141.84;46.78;18836.41;5067152;28;20207;-60
2022/05/21 10:05:52;;;;;;;3.22;2.63;;;19.00;99.90;;;-141.84;46.80;18872.97;5062092;28;20196;-59
2022/05/21 10:11:24;;;;;;;3.90;2.67;;;19.20;99.90;;;-141.84;46.66;18915.63;5070861;28;20196;-60
2022/05/21 10:14:04;;;;;;;3.03;2.67;;;19.40;99.90;;;-141.84;45.33;18958.31;5070595;28;20189;-60
2022/05/21 10:16:40;;;;;;;3.58;2.67;;;19.60;99.90;;;-141.84;44.90;18966.44;5070419;28;20181;-60
2022/05/21 10:19:16;;;;;;;2.80;2.60;;;19.80;99.90;;;-141.84;44.62;18986.75;5070766;28;20205;-59
2022/05/21 10:22:02;;;;;;;4.53;2.30;;;20.00;99.90;;;-141.84;43.90;18988.78;5073126;28;20201;-61
2022/05/21 10:24:51;;;;;;;3.60;2.40;;;20.00;99.90;;;-141.84;43.82;19055.84;5074380;28;20192;-59
2022/05/21 10:27:45;;;;;;;3.75;2.85;;;20.10;99.90;;;-141.84;43.66;19049.75;5075091;28;20193;-60
2022/05/21 10:30:20;;;;;;;2.40;2.20;;;20.30;99.90;;;-141.84;43.21;19043.66;5074596;28;20189;-60
2022/05/21 10:33:29;;;;;;;6.18;5.07;;;20.30;99.90;;;-141.84;43.06;19057.88;5074736;28;20184;-60
2022/05/21 10:36:20;;;;;;;3.30;3.00;;;20.30;99.90;;;-141.84;42.80;19068.03;5070263;28;20676;-59
2022/05/21 10:39:29;;;;;;;3.63;2.78;;;20.30;99.90;;;-141.84;43.88;19027.41;5071353;28;20216;-60
2022/05/21 10:42:37;;;;;;;5.75;2.50;;;20.30;99.90;;;-141.84;43.88;19055.84;5074312;28;20189;-60
2022/05/21 10:45:18;;;;;;;1.95;1.85;;;20.30;99.90;;;-141.84;43.14;19086.31;5061197;28;20663;-59
2022/05/21 10:48:16;;;;;;;2.40;2.20;;;20.60;99.90;;;-141.84;41.69;19157.44;5074416;28;20193;-60
2022/05/21 10:50:54;;;;;;;3.53;2.30;;;20.70;99.90;;;-141.84;42.04;19159.47;5074116;28;20199;-60